Time;durP1;ratioP1;P1;durP2;ratioP2;P2;SDS_P1;SDS_P2;PMS_P1;PMS_P2;Temp;Humidity;BMP_temperature;BMP_pressure;BME280_temperature;BME280_humidity;BME280_pressure;Samples;Min_cycle;Max_cycle;Signal;HPM_P1;HPM_P2
2023/12/10 05:32:31;;;;;;;0.10;0.10;;;9.60;90.00;;;;;;4872167;29;20058;-85
2023/12/10 05:34:56;;;;;;;0.15;0.15;;;9.70;90.10;;;;;;4877844;29;20029;-83
2023/12/10 05:37:22;;;;;;;0.20;0.20;;;9.60;90.00;;;;;;4873914;29;20038;-86
2023/12/10 05:39:47;;;;;;;0.20;0.20;;;9.60;90.00;;;;;;4847411;29;20115;-86
2023/12/10 05:42:13;;;;;;;0.10;0.10;;;9.60;89.80;;;;;;4880071;29;20498;-85
2023/12/10 05:44:39;;;;;;;0.20;0.20;;;9.50;90.00;;;;;;4879600;29;20025;-86
2023/12/10 05:47:04;;;;;;;0.20;0.20;;;9.50;89.90;;;;;;4880141;29;20033;-85
2023/12/10 05:49:30;;;;;;;0.20;0.20;;;9.40;90.00;;;;;;4879914;29;20025;-85
2023/12/10 05:51:55;;;;;;;0.20;0.20;;;9.40;90.00;;;;;;4879389;29;20073;-84
2023/12/10 05:54:21;;;;;;;0.15;0.15;;;9.40;90.10;;;;;;4863073;29;20024;-83
2023/12/10 05:56:46;;;;;;;0.20;0.20;;;9.40;90.30;;;;;;4878159;29;20097;-82
2023/12/10 05:59:12;;;;;;;0.10;0.10;;;9.40;90.30;;;;;;4879708;29;20029;-83
2023/12/10 06:01:38;;;;;;;0.13;0.13;;;9.40;90.30;;;;;;4876486;29;20093;-84
2023/12/10 06:04:03;;;;;;;0.10;0.10;;;9.40;90.30;;;;;;4879981;29;20501;-84
2023/12/10 06:06:29;;;;;;;0.10;0.10;;;9.40;90.30;;;;;;4862451;29;20041;-83
2023/12/10 06:08:54;;;;;;;0.10;0.10;;;9.30;90.20;;;;;;4878596;29;20668;-84
2023/12/10 06:11:21;;;;;;;0.10;0.10;;;9.30;90.30;;;;;;4870409;29;20065;-84
2023/12/10 06:13:47;;;;;;;0.20;0.20;;;9.30;90.40;;;;;;4867332;29;20028;-83
2023/12/10 06:16:12;;;;;;;0.10;0.10;;;9.30;90.30;;;;;;4879942;29;20470;-84
2023/12/10 06:18:39;;;;;;;0.10;0.10;;;9.30;90.40;;;;;;4879783;29;20100;-83
2023/12/10 06:21:04;;;;;;;0.10;0.10;;;9.30;90.40;;;;;;4878629;29;20033;-84
2023/12/10 06:23:30;;;;;;;0.15;0.15;;;9.30;90.40;;;;;;4877146;29;20516;-84
2023/12/10 06:25:56;;;;;;;0.20;0.20;;;9.30;90.40;;;;;;4879911;29;20036;-84
2023/12/10 06:28:21;;;;;;;0.10;0.10;;;9.30;90.30;;;;;;4879664;29;20061;-84
2023/12/10 06:30:47;;;;;;;0.20;0.20;;;9.30;90.40;;;;;;4879310;29;20057;-83
2023/12/10 06:33:13;;;;;;;0.10;0.10;;;9.30;90.40;;;;;;4877172;29;20515;-83
2023/12/10 06:35:38;;;;;;;0.10;0.10;;;9.30;90.40;;;;;;4861085;29;20067;-83
2023/12/10 06:38:04;;;;;;;0.10;0.10;;;9.30;90.40;;;;;;4862451;29;20026;-83
2023/12/10 06:40:29;;;;;;;0.13;0.13;;;9.30;90.50;;;;;;4878582;29;20041;-83
2023/12/10 06:42:55;;;;;;;0.10;0.10;;;9.40;90.50;;;;;;4877476;29;20029;-83
2023/12/10 06:45:21;;;;;;;0.20;0.20;;;9.30;90.30;;;;;;4879574;29;20482;-84
2023/12/10 06:47:46;;;;;;;0.20;0.20;;;9.40;90.40;;;;;;4879138;29;20029;-83
2023/12/10 06:50:12;;;;;;;0.10;0.10;;;9.40;90.40;;;;;;4878166;29;20156;-83
2023/12/10 06:52:37;;;;;;;0.17;0.17;;;9.30;90.30;;;;;;4879077;29;20222;-84
2023/12/10 06:55:03;;;;;;;0.10;0.10;;;9.30;90.20;;;;;;4879071;29;20037;-83
2023/12/10 06:57:29;;;;;;;0.10;0.10;;;9.30;90.30;;;;;;4877582;29;20029;-84
2023/12/10 06:59:55;;;;;;;0.20;0.20;;;9.30;90.30;;;;;;4879391;29;20405;-83
2023/12/10 07:02:20;;;;;;;0.15;0.15;;;9.20;90.00;;;;;;4863827;29;20036;-84
2023/12/10 07:04:46;;;;;;;0.10;0.10;;;9.20;90.30;;;;;;4881980;29;20045;-83
2023/12/10 07:07:11;;;;;;;0.13;0.13;;;9.20;90.30;;;;;;4881470;29;20029;-84
2023/12/10 07:09:37;;;;;;;0.10;0.10;;;9.20;90.40;;;;;;4882761;29;20029;-83
2023/12/10 07:12:03;;;;;;;0.10;0.10;;;9.20;90.40;;;;;;4882183;29;20044;-83
2023/12/10 07:14:28;;;;;;;0.20;0.20;;;9.20;90.30;;;;;;4883121;29;20052;-83
2023/12/10 07:16:54;;;;;;;0.10;0.10;;;9.20;90.40;;;;;;4882432;29;20068;-84
2023/12/10 07:19:20;;;;;;;0.20;0.20;;;9.20;90.30;;;;;;4865880;29;20036;-77
2023/12/10 07:21:48;;;;;;;0.20;0.20;;;9.10;90.00;;;;;;4879758;29;20037;-77
2023/12/10 07:24:14;;;;;;;0.20;0.20;;;9.10;90.30;;;;;;4870108;29;20065;-78
2023/12/10 07:26:40;;;;;;;0.10;0.10;;;9.10;90.50;;;;;;4878470;29;20041;-80
2023/12/10 07:29:05;;;;;;;0.17;0.17;;;9.10;90.40;;;;;;4881051;29;20029;-78
2023/12/10 07:31:31;;;;;;;0.10;0.10;;;9.10;90.50;;;;;;4877299;29;20133;-79
2023/12/10 07:33:56;;;;;;;0.10;0.10;;;9.20;90.80;;;;;;4872728;29;20045;-78
2023/12/10 07:36:22;;;;;;;0.10;0.10;;;9.20;90.70;;;;;;4881842;29;20037;-80
2023/12/10 07:38:47;;;;;;;0.20;0.20;;;9.20;90.90;;;;;;4881975;29;20414;-79
2023/12/10 07:41:13;;;;;;;0.25;0.20;;;9.20;90.80;;;;;;4881498;29;20044;-80
2023/12/10 07:43:39;;;;;;;0.10;0.10;;;9.20;90.90;;;;;;4882053;29;20033;-80
2023/12/10 07:46:04;;;;;;;0.20;0.20;;;9.20;91.00;;;;;;4881968;29;20573;-79
2023/12/10 07:48:30;;;;;;;0.10;0.10;;;9.30;91.00;;;;;;4881381;29;20037;-80
2023/12/10 07:50:56;;;;;;;0.20;0.20;;;9.30;90.90;;;;;;4865177;29;20040;-79
2023/12/10 07:53:22;;;;;;;0.20;0.20;;;9.40;90.80;;;;;;4881058;29;20040;-80
2023/12/10 07:55:47;;;;;;;0.13;0.13;;;9.40;90.70;;;;;;4861966;29;20540;-82
2023/12/10 07:58:13;;;;;;;0.10;0.10;;;9.40;90.80;;;;;;4862934;29;20048;-84
2023/12/10 08:00:39;;;;;;;0.20;0.20;;;9.50;90.80;;;;;;4879996;29;20048;-78
2023/12/10 08:03:05;;;;;;;0.10;0.10;;;9.40;90.60;;;;;;4860910;29;20120;-79
2023/12/10 08:05:31;;;;;;;0.20;0.20;;;9.50;90.80;;;;;;4877480;29;20073;-79
2023/12/10 08:08:02;;;;;;;0.10;0.10;;;9.50;90.60;;;;;;4863764;29;20029;-79
2023/12/10 08:10:28;;;;;;;0.20;0.20;;;9.50;90.70;;;;;;4876278;29;20029;-79
2023/12/10 08:12:54;;;;;;;0.20;0.20;;;9.60;90.60;;;;;;4881109;29;20033;-79
2023/12/10 08:15:20;;;;;;;0.10;0.10;;;9.60;90.60;;;;;;4874086;29;20033;-79
2023/12/10 08:17:46;;;;;;;0.20;0.20;;;9.70;90.60;;;;;;4877902;29;20124;-79
2023/12/10 08:20:12;;;;;;;0.20;0.20;;;9.70;90.50;;;;;;4864273;29;20094;-77
2023/12/10 08:22:38;;;;;;;0.20;0.20;;;9.70;90.60;;;;;;4865430;29;20090;-80
2023/12/10 08:25:05;;;;;;;0.10;0.10;;;9.70;90.50;;;;;;4853214;29;20063;-81
2023/12/10 08:27:31;;;;;;;0.13;0.13;;;9.80;90.40;;;;;;4876331;29;20092;-79
2023/12/10 08:29:56;;;;;;;0.10;0.10;;;9.80;90.50;;;;;;4884769;29;20513;-78
2023/12/10 08:32:22;;;;;;;0.20;0.20;;;9.90;90.40;;;;;;4868001;29;20056;-79
2023/12/10 08:34:48;;;;;;;0.10;0.10;;;9.90;90.50;;;;;;4872810;29;20069;-80
2023/12/10 08:37:13;;;;;;;0.10;0.10;;;9.90;90.50;;;;;;4868667;29;20064;-81
2023/12/10 08:39:40;;;;;;;0.10;0.10;;;10.00;90.60;;;;;;4876778;29;20041;-80
2023/12/10 08:42:05;;;;;;;0.20;0.20;;;10.00;90.50;;;;;;4854589;29;20034;-79
2023/12/10 08:44:31;;;;;;;0.15;0.15;;;10.10;90.60;;;;;;4866597;29;20045;-80
2023/12/10 08:46:57;;;;;;;0.20;0.20;;;10.10;90.70;;;;;;4847082;29;20387;-80
2023/12/10 08:49:22;;;;;;;0.20;0.20;;;10.20;90.60;;;;;;4868365;29;20469;-80
2023/12/10 08:51:48;;;;;;;0.10;0.10;;;10.20;90.60;;;;;;4868201;29;20060;-81
2023/12/10 08:54:13;;;;;;;0.10;0.10;;;10.30;90.80;;;;;;4863079;29;20116;-76
2023/12/10 08:56:39;;;;;;;0.10;0.10;;;10.30;91.00;;;;;;4850858;29;20045;-80
2023/12/10 08:59:14;;;;;;;0.10;0.10;;;10.40;91.10;;;;;;4873661;29;20127;-84
2023/12/10 09:01:40;;;;;;;0.20;0.20;;;10.40;91.10;;;;;;4874274;29;20490;-86
2023/12/10 09:04:06;;;;;;;0.20;0.20;;;10.60;91.10;;;;;;4874637;29;20087;-79
2023/12/10 09:06:32;;;;;;;0.10;0.10;;;10.60;91.10;;;;;;4860319;29;20508;-79
2023/12/10 09:08:58;;;;;;;0.10;0.10;;;10.70;91.00;;;;;;4873157;29;20056;-80
2023/12/10 09:11:23;;;;;;;0.20;0.20;;;10.80;91.10;;;;;;4871303;29;20045;-81
2023/12/10 09:13:49;;;;;;;0.20;0.20;;;10.80;91.10;;;;;;4862378;29;20149;-81
2023/12/10 09:16:18;;;;;;;0.10;0.10;;;10.90;91.00;;;;;;4861696;29;20097;-81
2023/12/10 09:18:43;;;;;;;0.15;0.15;;;11.00;91.00;;;;;;4866361;29;20041;-81
2023/12/10 09:21:09;;;;;;;0.20;0.20;;;11.10;91.00;;;;;;4875771;29;20035;-82
2023/12/10 09:23:35;;;;;;;0.10;0.10;;;11.20;91.00;;;;;;4873824;29;20088;-85
2023/12/10 09:26:01;;;;;;;0.20;0.20;;;11.20;91.00;;;;;;4869327;29;20082;-81
2023/12/10 09:28:26;;;;;;;0.13;0.13;;;11.30;90.90;;;;;;4863443;29;20071;-82
2023/12/10 09:30:52;;;;;;;0.10;0.10;;;11.30;90.80;;;;;;4868906;29;20080;-80
2023/12/10 09:33:18;;;;;;;0.10;0.10;;;11.40;90.70;;;;;;4877996;29;20056;-82
2023/12/10 09:35:43;;;;;;;0.10;0.10;;;11.40;90.70;;;;;;4872863;29;20043;-82
2023/12/10 09:38:09;;;;;;;0.10;0.10;;;11.50;90.60;;;;;;4874096;29;20120;-79
2023/12/10 09:40:35;;;;;;;0.20;0.20;;;11.50;90.60;;;;;;4875485;29;20477;-81
2023/12/10 09:43:01;;;;;;;0.10;0.10;;;11.60;90.60;;;;;;4875991;29;20418;-82
2023/12/10 09:45:28;;;;;;;0.10;0.10;;;11.70;90.50;;;;;;4877019;29;20021;-81
2023/12/10 09:47:54;;;;;;;0.10;0.10;;;11.80;90.40;;;;;;4874548;29;20025;-81
2023/12/10 09:50:20;;;;;;;0.10;0.10;;;11.80;90.30;;;;;;4871507;29;20097;-81
2023/12/10 09:52:46;;;;;;;0.10;0.10;;;11.80;90.20;;;;;;4879052;29;20409;-81
2023/12/10 09:55:12;;;;;;;0.10;0.10;;;11.90;90.20;;;;;;4868653;29;20033;-82
2023/12/10 09:57:39;;;;;;;0.10;0.10;;;11.90;90.20;;;;;;4878894;29;20045;-83
2023/12/10 10:00:06;;;;;;;0.10;0.10;;;11.90;90.20;;;;;;4876563;29;20169;-82
2023/12/10 10:02:35;;;;;;;0.10;0.10;;;12.00;90.10;;;;;;4852518;29;20044;-84
2023/12/10 10:05:02;;;;;;;0.10;0.10;;;12.00;90.10;;;;;;4877561;29;20034;-83
2023/12/10 10:07:31;;;;;;;0.10;0.10;;;12.00;90.10;;;;;;4855347;29;20401;-81
2023/12/10 10:09:57;;;;;;;0.10;0.10;;;12.00;90.10;;;;;;4850487;29;20041;-78
2023/12/10 10:12:29;;;;;;;0.10;0.10;;;12.00;90.10;;;;;;4858935;29;20436;-78
2023/12/10 10:14:56;;;;;;;0.10;0.10;;;12.10;90.10;;;;;;4889663;29;20346;-80
2023/12/10 10:17:26;;;;;;;0.10;0.10;;;12.10;90.10;;;;;;4886024;29;20052;-77
2023/12/10 10:19:51;;;;;;;0.10;0.10;;;12.10;90.20;;;;;;4871019;29;20034;-79
2023/12/10 10:22:17;;;;;;;0.10;0.10;;;12.10;90.30;;;;;;4884279;29;20040;-80
2023/12/10 10:24:43;;;;;;;0.10;0.10;;;12.10;90.30;;;;;;4884870;29;20077;-80
2023/12/10 10:27:09;;;;;;;0.10;0.10;;;12.20;90.40;;;;;;4875612;29;20033;-79
2023/12/10 10:29:35;;;;;;;0.10;0.10;;;12.10;90.60;;;;;;4877500;29;20037;-79
2023/12/10 10:32:01;;;;;;;0.10;0.10;;;12.10;90.70;;;;;;4876253;29;20113;-79
2023/12/10 10:34:27;;;;;;;0.10;0.10;;;12.00;90.80;;;;;;4862676;29;20056;-81
2023/12/10 10:36:53;;;;;;;0.10;0.10;;;12.00;91.10;;;;;;4873151;29;20037;-78
2023/12/10 10:39:19;;;;;;;0.10;0.10;;;12.10;91.10;;;;;;4883509;29;20040;-78
2023/12/10 10:41:45;;;;;;;0.10;0.10;;;12.00;91.30;;;;;;4863204;29;20087;-78
2023/12/10 10:44:10;;;;;;;0.10;0.10;;;12.00;91.50;;;;;;4883292;29;20035;-81
2023/12/10 10:46:36;;;;;;;0.10;0.10;;;12.00;91.40;;;;;;4877479;29;20455;-79
2023/12/10 10:49:02;;;;;;;0.10;0.10;;;12.00;91.30;;;;;;4869190;29;20059;-81
2023/12/10 10:51:31;;;;;;;0.10;0.10;;;12.00;91.60;;;;;;4881944;29;20161;-81
2023/12/10 10:53:58;;;;;;;0.10;0.10;;;12.10;91.50;;;;;;4882065;29;20037;-81
2023/12/10 10:56:24;;;;;;;0.10;0.10;;;12.10;91.50;;;;;;4866868;29;20036;-80
2023/12/10 10:58:50;;;;;;;0.10;0.10;;;12.20;91.60;;;;;;4864321;29;20033;-80
2023/12/10 11:01:35;;;;;;;0.10;0.10;;;12.20;91.80;;;;;;4864967;29;20045;-80
2023/12/10 11:04:01;;;;;;;0.10;0.10;;;12.20;91.80;;;;;;4881330;29;20028;-82
2023/12/10 11:06:26;;;;;;;0.10;0.10;;;12.20;92.00;;;;;;4862438;29;20029;-87
2023/12/10 11:08:57;;;;;;;0.10;0.10;;;12.20;92.00;;;;;;4886031;29;20036;-82
2023/12/10 11:11:26;;;;;;;0.00;0.00;;;12.20;92.10;;;;;;4860021;29;20421;-85
2023/12/10 11:13:53;;;;;;;0.10;0.10;;;12.20;92.20;;;;;;4875006;29;20025;-80
2023/12/10 11:16:21;;;;;;;0.10;0.10;;;12.20;92.30;;;;;;4880356;29;20602;-81
2023/12/10 11:18:53;;;;;;;0.10;0.10;;;12.20;92.30;;;;;;4883433;29;20104;-80
2023/12/10 11:21:19;;;;;;;0.00;0.00;;;12.20;92.30;;;;;;4880829;29;20500;-83
2023/12/10 11:23:45;;;;;;;0.10;0.10;;;12.20;92.30;;;;;;4876456;29;20021;-81
2023/12/10 11:26:11;;;;;;;0.10;0.10;;;12.30;92.30;;;;;;4879045;29;20466;-79
2023/12/10 11:28:36;;;;;;;0.10;0.10;;;12.40;92.30;;;;;;4882003;29;20111;-81
2023/12/10 11:31:02;;;;;;;0.10;0.10;;;12.40;92.40;;;;;;4876076;29;20057;-80
2023/12/10 11:33:28;;;;;;;0.10;0.10;;;12.30;92.50;;;;;;4884554;29;20045;-81
2023/12/10 11:35:56;;;;;;;0.10;0.10;;;12.30;92.60;;;;;;4883899;29;20160;-80
2023/12/10 11:38:22;;;;;;;0.10;0.10;;;12.40;92.70;;;;;;4882121;29;20036;-80
2023/12/10 11:40:48;;;;;;;0.10;0.10;;;12.40;92.70;;;;;;4875779;29;20082;-79
2023/12/10 11:43:14;;;;;;;0.10;0.10;;;12.50;92.70;;;;;;4865356;29;20108;-80
2023/12/10 11:45:39;;;;;;;0.10;0.10;;;12.50;92.60;;;;;;4877839;29;20113;-80
2023/12/10 11:48:05;;;;;;;0.10;0.10;;;12.50;92.60;;;;;;4879494;29;20060;-85
2023/12/10 11:50:32;;;;;;;0.10;0.10;;;12.60;92.50;;;;;;4882481;29;20033;-79
2023/12/10 11:52:58;;;;;;;0.10;0.10;;;12.70;92.60;;;;;;4882398;29;20064;-83
2023/12/10 11:55:24;;;;;;;0.00;0.00;;;12.70;92.50;;;;;;4864285;29;20068;-82
2023/12/10 11:57:49;;;;;;;0.10;0.10;;;12.80;92.50;;;;;;4877920;29;20060;-82
2023/12/10 12:00:15;;;;;;;0.10;0.10;;;12.80;92.50;;;;;;4882248;29;20485;-80
2023/12/10 12:02:45;;;;;;;0.10;0.10;;;12.80;92.50;;;;;;4865275;29;20021;-79
2023/12/10 12:05:13;;;;;;;0.10;0.10;;;12.80;92.40;;;;;;4876851;29;20124;-81
2023/12/10 12:07:39;;;;;;;0.10;0.10;;;12.90;92.30;;;;;;4876325;29;20543;-84
2023/12/10 12:10:09;;;;;;;0.10;0.10;;;12.90;92.30;;;;;;4877697;29;20036;-82
2023/12/10 12:12:42;;;;;;;0.05;0.05;;;12.90;92.40;;;;;;4862285;29;20048;-80
2023/12/10 12:15:10;;;;;;;0.10;0.10;;;13.00;92.30;;;;;;4854339;29;20052;-83
2023/12/10 12:17:39;;;;;;;0.10;0.10;;;13.10;92.30;;;;;;4876782;29;20044;-82
2023/12/10 12:20:25;;;;;;;0.10;0.10;;;13.20;92.30;;;;;;4879893;29;20036;-79
2023/12/10 12:22:51;;;;;;;0.08;0.08;;;13.20;92.40;;;;;;4880745;29;20073;-76
2023/12/10 12:25:17;;;;;;;0.10;0.10;;;13.20;92.40;;;;;;4881515;29;20033;-79
2023/12/10 12:27:43;;;;;;;0.00;0.00;;;13.20;92.30;;;;;;4878896;29;20115;-77
2023/12/10 12:30:09;;;;;;;0.10;0.10;;;13.30;92.30;;;;;;4880042;29;20057;-77
2023/12/10 12:32:35;;;;;;;0.10;0.10;;;13.30;92.20;;;;;;4876943;29;20045;-78
2023/12/10 12:35:01;;;;;;;0.03;0.03;;;13.30;92.30;;;;;;4861333;29;20519;-77
2023/12/10 12:37:26;;;;;;;0.10;0.10;;;13.40;92.30;;;;;;4875747;29;20108;-77
2023/12/10 12:39:54;;;;;;;0.10;0.10;;;13.50;92.40;;;;;;4878761;29;20061;-77
2023/12/10 12:42:22;;;;;;;0.00;0.00;;;13.50;92.30;;;;;;4878377;29;20524;-77
2023/12/10 12:44:48;;;;;;;0.10;0.10;;;13.60;92.30;;;;;;4880679;29;20404;-79
2023/12/10 12:47:14;;;;;;;0.10;0.10;;;13.60;92.50;;;;;;4869221;29;20116;-77
2023/12/10 12:49:39;;;;;;;0.10;0.10;;;13.70;92.50;;;;;;4880639;29;20088;-77
2023/12/10 12:52:07;;;;;;;0.10;0.10;;;13.70;92.40;;;;;;4878866;29;20066;-76
2023/12/10 12:54:33;;;;;;;0.10;0.10;;;13.70;92.30;;;;;;4880619;29;20107;-77
2023/12/10 12:56:58;;;;;;;0.00;0.00;;;13.80;92.30;;;;;;4877496;29;20049;-77
2023/12/10 12:59:24;;;;;;;0.10;0.10;;;13.80;92.40;;;;;;4878659;29;20485;-77
2023/12/10 13:01:50;;;;;;;0.00;0.00;;;13.80;92.30;;;;;;4878447;29;20056;-77
2023/12/10 13:04:15;;;;;;;0.10;0.10;;;13.80;92.30;;;;;;4879497;29;20092;-77
2023/12/10 13:06:41;;;;;;;0.10;0.10;;;13.90;92.30;;;;;;4861299;29;20068;-77
2023/12/10 13:09:07;;;;;;;0.00;0.00;;;13.90;92.40;;;;;;4872050;29;20433;-76
2023/12/10 13:11:32;;;;;;;0.10;0.10;;;13.90;92.30;;;;;;4862160;29;20036;-78
2023/12/10 13:13:58;;;;;;;0.00;0.00;;;14.00;92.40;;;;;;4859172;29;20038;-76
2023/12/10 13:16:24;;;;;;;0.03;0.03;;;14.00;92.40;;;;;;4861624;29;20033;-76
2023/12/10 13:18:49;;;;;;;0.00;0.00;;;14.00;92.50;;;;;;4878429;29;20033;-77
2023/12/10 13:21:15;;;;;;;0.00;0.00;;;14.10;92.40;;;;;;4871694;29;20036;-79
2023/12/10 13:23:40;;;;;;;0.00;0.00;;;14.10;92.30;;;;;;4861955;29;20037;-76
2023/12/10 13:26:06;;;;;;;0.10;0.10;;;14.20;92.30;;;;;;4876769;29;20045;-78
2023/12/10 13:28:32;;;;;;;0.10;0.10;;;14.20;92.30;;;;;;4879060;29;20053;-77
2023/12/10 13:30:57;;;;;;;0.10;0.10;;;14.20;92.30;;;;;;4862376;29;20056;-78
2023/12/10 13:33:23;;;;;;;0.00;0.00;;;14.20;92.30;;;;;;4878213;29;20145;-78
2023/12/10 13:35:49;;;;;;;0.10;0.10;;;14.30;92.30;;;;;;4880304;29;20037;-80
2023/12/10 13:38:15;;;;;;;0.10;0.10;;;14.30;92.30;;;;;;4877362;29;20032;-75
2023/12/10 13:40:41;;;;;;;0.00;0.00;;;14.30;92.30;;;;;;4878457;29;20405;-79
2023/12/10 13:43:06;;;;;;;0.10;0.10;;;14.30;92.30;;;;;;4880055;29;20552;-78
2023/12/10 13:45:32;;;;;;;0.10;0.10;;;14.30;92.10;;;;;;4879848;29;20025;-78
2023/12/10 13:48:00;;;;;;;0.00;0.00;;;14.40;92.20;;;;;;4874899;29;20018;-81
2023/12/10 13:50:26;;;;;;;0.00;0.00;;;14.40;92.20;;;;;;4856586;29;20515;-79
2023/12/10 13:52:52;;;;;;;0.00;0.00;;;14.50;92.20;;;;;;4878559;29;20049;-77
2023/12/10 13:55:17;;;;;;;0.10;0.10;;;14.50;92.40;;;;;;4862343;29;20519;-83
2023/12/10 13:57:43;;;;;;;0.10;0.10;;;14.60;92.30;;;;;;4873305;29;20065;-82
2023/12/10 14:00:12;;;;;;;0.10;0.10;;;14.60;92.40;;;;;;4878714;29;20108;-83
2023/12/10 14:02:38;;;;;;;0.10;0.10;;;14.70;92.20;;;;;;4879595;29;20025;-85
2023/12/10 14:05:06;;;;;;;0.10;0.10;;;14.70;92.40;;;;;;4880090;29;20077;-81
2023/12/10 14:07:32;;;;;;;0.00;0.00;;;14.70;92.30;;;;;;4873200;29;20025;-81
2023/12/10 14:09:58;;;;;;;0.10;0.10;;;14.80;92.30;;;;;;4862602;29;20088;-88
2023/12/10 14:12:23;;;;;;;0.10;0.10;;;14.80;92.20;;;;;;4882532;29;20032;-83
2023/12/10 14:14:49;;;;;;;0.00;0.00;;;14.80;92.20;;;;;;4875957;29;20540;-80
2023/12/10 14:17:15;;;;;;;0.05;0.05;;;14.80;92.10;;;;;;4877544;29;20040;-80
2023/12/10 14:19:40;;;;;;;0.10;0.10;;;14.80;92.00;;;;;;4862703;29;20037;-81
2023/12/10 14:22:06;;;;;;;0.10;0.10;;;14.90;92.00;;;;;;4881598;29;20572;-81
2023/12/10 14:24:32;;;;;;;0.00;0.00;;;14.90;91.90;;;;;;4882291;29;20033;-81
2023/12/10 14:26:57;;;;;;;0.08;0.08;;;14.90;91.90;;;;;;4881770;29;20021;-81
2023/12/10 14:29:23;;;;;;;0.00;0.00;;;15.00;91.90;;;;;;4881120;29;20159;-81
2023/12/10 14:31:49;;;;;;;0.00;0.00;;;15.00;91.80;;;;;;4878951;29;20796;-81
2023/12/10 14:34:14;;;;;;;0.00;0.00;;;15.00;91.80;;;;;;4878385;29;20065;-81
2023/12/10 14:36:40;;;;;;;0.10;0.10;;;15.00;91.80;;;;;;4878153;29;20108;-81
2023/12/10 14:39:06;;;;;;;0.00;0.00;;;15.00;91.70;;;;;;4882456;29;20516;-81
2023/12/10 14:41:32;;;;;;;0.00;0.00;;;15.00;91.70;;;;;;4876055;29;20033;-81
2023/12/10 14:43:58;;;;;;;0.10;0.10;;;15.10;91.70;;;;;;4883248;29;20021;-82
2023/12/10 14:46:23;;;;;;;0.05;0.05;;;15.10;91.70;;;;;;4857091;29;20104;-84
2023/12/10 14:48:49;;;;;;;0.00;0.00;;;15.10;91.60;;;;;;4865963;29;20700;-81
2023/12/10 14:51:15;;;;;;;0.00;0.00;;;15.20;91.60;;;;;;4870316;29;20568;-81
2023/12/10 14:53:41;;;;;;;0.00;0.00;;;15.10;91.40;;;;;;4865243;29;20048;-81
2023/12/10 14:56:07;;;;;;;0.00;0.00;;;15.20;91.30;;;;;;4877230;29;20449;-81
2023/12/10 14:58:33;;;;;;;0.00;0.00;;;15.20;91.40;;;;;;4874477;29;20124;-81
2023/12/10 15:00:59;;;;;;;0.00;0.00;;;15.20;91.30;;;;;;4872931;29;20044;-82
2023/12/10 15:03:24;;;;;;;0.00;0.00;;;15.20;91.20;;;;;;4868873;29;20036;-82
2023/12/10 15:05:51;;;;;;;0.10;0.10;;;15.20;91.20;;;;;;4854591;29;20111;-81
2023/12/10 15:08:19;;;;;;;0.00;0.00;;;15.20;91.20;;;;;;4857907;29;20074;-81
2023/12/10 15:10:46;;;;;;;0.10;0.10;;;15.30;91.10;;;;;;4873466;29;20025;-82
2023/12/10 15:13:12;;;;;;;0.00;0.00;;;15.30;91.00;;;;;;4881989;29;20045;-81
2023/12/10 15:15:37;;;;;;;0.00;0.00;;;15.30;91.00;;;;;;4871343;29;20043;-81
2023/12/10 15:18:03;;;;;;;0.00;0.00;;;15.30;90.90;;;;;;4876346;29;20397;-80
2023/12/10 15:20:29;;;;;;;0.10;0.10;;;15.30;90.90;;;;;;4870397;29;20032;-76
2023/12/10 15:22:55;;;;;;;0.05;0.05;;;15.30;90.90;;;;;;4864699;29;20087;-79
2023/12/10 15:25:20;;;;;;;0.10;0.10;;;15.30;90.90;;;;;;4874137;29;20043;-86
2023/12/10 15:27:46;;;;;;;0.00;0.00;;;15.30;90.80;;;;;;4878358;29;20037;-83
2023/12/10 15:30:12;;;;;;;0.00;0.00;;;15.30;90.80;;;;;;4880754;29;20121;-79
2023/12/10 15:32:38;;;;;;;0.00;0.00;;;15.30;90.80;;;;;;4868089;29;20045;-82
2023/12/10 15:35:04;;;;;;;0.00;0.00;;;15.20;90.70;;;;;;4881888;29;20035;-85
2023/12/10 15:37:30;;;;;;;0.10;0.10;;;15.30;90.80;;;;;;4878276;29;20033;-83
2023/12/10 15:39:56;;;;;;;0.05;0.05;;;15.30;90.70;;;;;;4876991;29;20032;-84
2023/12/10 15:42:22;;;;;;;0.10;0.10;;;15.20;90.70;;;;;;4863121;29;20040;-83
2023/12/10 15:44:48;;;;;;;0.00;0.00;;;15.20;90.70;;;;;;4852947;29;20081;-84
2023/12/10 15:47:16;;;;;;;0.10;0.10;;;15.20;90.70;;;;;;4859689;29;20048;-83
2023/12/10 15:49:43;;;;;;;0.00;0.00;;;15.20;90.60;;;;;;4865369;29;20423;-83
2023/12/10 15:52:09;;;;;;;0.00;0.00;;;15.10;90.60;;;;;;4874692;29;20045;-83
2023/12/10 15:54:35;;;;;;;0.00;0.00;;;15.10;90.60;;;;;;4872807;29;20041;-84
2023/12/10 15:57:03;;;;;;;0.10;0.10;;;15.10;90.50;;;;;;4868674;29;20112;-84
2023/12/10 15:59:32;;;;;;;0.10;0.10;;;15.10;90.50;;;;;;4880605;29;20037;-83
2023/12/10 16:01:58;;;;;;;0.10;0.10;;;15.10;90.50;;;;;;4879013;29;20108;-84
2023/12/10 16:04:25;;;;;;;0.10;0.10;;;15.10;90.50;;;;;;4864225;29;20025;-84
2023/12/10 16:06:51;;;;;;;0.10;0.10;;;15.10;90.40;;;;;;4865128;29;20036;-85
2023/12/10 16:09:17;;;;;;;0.00;0.00;;;15.10;90.40;;;;;;4882074;29;20036;-85
2023/12/10 16:11:42;;;;;;;0.00;0.00;;;15.20;90.40;;;;;;4860101;29;20025;-84
2023/12/10 16:14:11;;;;;;;0.08;0.08;;;15.10;90.40;;;;;;4880867;29;20049;-84
2023/12/10 16:16:37;;;;;;;0.00;0.00;;;15.10;90.40;;;;;;4872043;29;20036;-84
2023/12/10 16:19:03;;;;;;;0.00;0.00;;;15.10;90.30;;;;;;4866751;29;20029;-85
2023/12/10 16:21:29;;;;;;;0.10;0.10;;;15.10;90.40;;;;;;4876139;29;20031;-84
2023/12/10 16:23:54;;;;;;;0.00;0.00;;;15.10;90.30;;;;;;4873053;29;20033;-85
2023/12/10 16:26:20;;;;;;;0.00;0.00;;;15.10;90.30;;;;;;4852841;29;20037;-84
2023/12/10 16:28:46;;;;;;;0.08;0.08;;;15.10;90.30;;;;;;4874185;29;20059;-80
2023/12/10 16:31:12;;;;;;;0.10;0.10;;;15.10;90.30;;;;;;4845748;29;20109;-84
2023/12/10 16:33:38;;;;;;;0.05;0.05;;;15.00;90.30;;;;;;4879420;29;20061;-86
2023/12/10 16:36:07;;;;;;;0.10;0.10;;;14.90;90.20;;;;;;4864083;29;20060;-88
2023/12/10 16:38:33;;;;;;;0.10;0.10;;;14.90;90.20;;;;;;4880061;29;20025;-84
2023/12/10 16:40:58;;;;;;;0.10;0.10;;;14.80;90.20;;;;;;4853264;29;20572;-79
2023/12/10 16:43:24;;;;;;;0.00;0.00;;;14.80;90.20;;;;;;4856645;29;20071;-83
2023/12/10 16:45:50;;;;;;;0.10;0.10;;;14.70;90.20;;;;;;4861318;29;20037;-84
2023/12/10 16:48:16;;;;;;;0.10;0.10;;;14.70;90.00;;;;;;4875239;29;20041;-91
2023/12/10 16:50:41;;;;;;;0.00;0.00;;;14.60;89.90;;;;;;4843231;29;20043;-88
2023/12/10 16:53:07;;;;;;;0.00;0.00;;;14.60;89.90;;;;;;4872551;29;20870;-88
2023/12/10 16:55:33;;;;;;;0.03;0.03;;;14.50;89.80;;;;;;4871531;29;20502;-87
2023/12/10 16:57:58;;;;;;;0.00;0.00;;;14.40;89.70;;;;;;4877851;29;20120;-90
2023/12/10 17:00:27;;;;;;;0.00;0.00;;;14.50;89.90;;;;;;4865424;29;20120;-91
2023/12/10 17:02:52;;;;;;;0.10;0.10;;;14.40;89.90;;;;;;4864248;29;20033;-91
2023/12/10 17:05:18;;;;;;;0.00;0.00;;;14.30;89.70;;;;;;4862612;29;20040;-91
2023/12/10 17:07:44;;;;;;;0.08;0.08;;;14.30;89.80;;;;;;4881750;29;20021;-89
2023/12/10 17:10:09;;;;;;;0.10;0.10;;;14.30;89.70;;;;;;4877642;29;20757;-83
2023/12/10 17:12:35;;;;;;;0.10;0.10;;;14.30;89.60;;;;;;4868707;29;20884;-89
2023/12/10 17:15:01;;;;;;;0.00;0.00;;;14.30;89.60;;;;;;4860790;29;20033;-88
2023/12/10 17:17:28;;;;;;;0.10;0.10;;;14.20;89.80;;;;;;4861592;29;20040;-88
2023/12/10 17:19:57;;;;;;;0.10;0.10;;;14.20;89.50;;;;;;4860864;29;20040;-87
2023/12/10 17:22:25;;;;;;;0.10;0.10;;;14.20;89.60;;;;;;4863729;29;20033;-88
2023/12/10 17:24:50;;;;;;;0.10;0.10;;;14.20;89.70;;;;;;4876641;29;20583;-74
2023/12/10 17:27:17;;;;;;;0.10;0.10;;;14.10;89.60;;;;;;4859165;29;20028;-75
2023/12/10 17:29:44;;;;;;;0.10;0.10;;;14.10;89.60;;;;;;4858152;29;20067;-78
2023/12/10 17:32:09;;;;;;;0.10;0.10;;;14.00;89.60;;;;;;4867763;29;20696;-75
2023/12/10 17:34:35;;;;;;;0.08;0.08;;;14.00;89.80;;;;;;4870653;29;20033;-75
2023/12/10 17:37:01;;;;;;;0.10;0.10;;;14.00;89.90;;;;;;4875495;29;20060;-75
2023/12/10 17:39:27;;;;;;;0.10;0.10;;;14.00;89.70;;;;;;4862884;29;20033;-75
2023/12/10 17:41:53;;;;;;;0.00;0.00;;;14.00;89.80;;;;;;4873157;29;20039;-74
2023/12/10 17:44:19;;;;;;;0.10;0.10;;;13.90;89.80;;;;;;4877960;29;20069;-75
2023/12/10 17:46:46;;;;;;;0.10;0.10;;;13.90;89.90;;;;;;4874869;29;20039;-74
2023/12/10 17:49:12;;;;;;;0.10;0.10;;;13.90;90.00;;;;;;4876975;29;20033;-77
2023/12/10 17:51:38;;;;;;;0.10;0.10;;;13.90;89.60;;;;;;4862447;29;20053;-78
2023/12/10 17:54:04;;;;;;;0.10;0.10;;;13.90;89.70;;;;;;4877388;29;20525;-78
2023/12/10 17:56:30;;;;;;;0.10;0.10;;;13.80;89.50;;;;;;4872962;29;20093;-78
2023/12/10 17:58:57;;;;;;;0.10;0.10;;;13.80;89.50;;;;;;4874038;29;20033;-79
2023/12/10 18:01:22;;;;;;;0.10;0.10;;;13.80;89.50;;;;;;4855008;29;20098;-77
2023/12/10 18:03:48;;;;;;;0.10;0.10;;;13.80;89.40;;;;;;4879177;29;20033;-77
2023/12/10 18:06:14;;;;;;;0.10;0.10;;;13.80;89.50;;;;;;4875311;29;20041;-78
2023/12/10 18:08:40;;;;;;;0.03;0.03;;;13.80;89.50;;;;;;4859180;29;20039;-78
2023/12/10 18:11:06;;;;;;;0.10;0.10;;;13.70;89.50;;;;;;4853758;29;20037;-78
2023/12/10 18:13:31;;;;;;;0.10;0.10;;;13.70;89.60;;;;;;4878642;29;20024;-78
2023/12/10 18:15:57;;;;;;;0.10;0.10;;;13.70;89.40;;;;;;4877021;29;20047;-79